sensor_id;sensor_type;location;lat;lon;timestamp;pressure;altitude;pressure_sealevel;temperature;humidity
63447;BME280;49577;49.872;6.190;2023-08-06T00:01:34;98394.42;;;13.89;89.22
63447;BME280;49577;49.872;6.190;2023-08-06T00:03:59;98396.95;;;13.92;89.19
63447;BME280;49577;49.872;6.190;2023-08-06T00:06:26;98388.86;;;13.93;89.15
63447;BME280;49577;49.872;6.190;2023-08-06T00:08:51;98383.13;;;13.92;89.55
63447;BME280;49577;49.872;6.190;2023-08-06T00:11:16;98384.34;;;13.92;89.87
63447;BME280;49577;49.872;6.190;2023-08-06T00:13:41;98381.21;;;13.91;89.78
63447;BME280;49577;49.872;6.190;2023-08-06T00:16:10;98378.88;;;13.92;90.08
63447;BME280;49577;49.872;6.190;2023-08-06T00:18:35;98374.61;;;13.93;90.19
63447;BME280;49577;49.872;6.190;2023-08-06T00:21:00;98372.92;;;13.92;90.32
63447;BME280;49577;49.872;6.190;2023-08-06T00:23:25;98370.94;;;13.90;90.28
63447;BME280;49577;49.872;6.190;2023-08-06T00:25:51;98367.58;;;13.89;90.31
63447;BME280;49577;49.872;6.190;2023-08-06T00:28:16;98365.83;;;13.87;90.24
63447;BME280;49577;49.872;6.190;2023-08-06T00:30:41;98361.86;;;13.85;90.72
63447;BME280;49577;49.872;6.190;2023-08-06T00:33:06;98358.59;;;13.82;91.00
63447;BME280;49577;49.872;6.190;2023-08-06T00:35:31;98353.68;;;13.80;91.71
63447;BME280;49577;49.872;6.190;2023-08-06T00:37:57;98359.99;;;13.78;92.05
63447;BME280;49577;49.872;6.190;2023-08-06T00:40:22;98358.11;;;13.76;92.24
63447;BME280;49577;49.872;6.190;2023-08-06T00:42:47;98359.75;;;13.74;92.36
63447;BME280;49577;49.872;6.190;2023-08-06T00:45:13;98361.58;;;13.73;92.61
63447;BME280;49577;49.872;6.190;2023-08-06T00:47:38;98359.66;;;13.71;92.69
63447;BME280;49577;49.872;6.190;2023-08-06T00:50:05;98356.55;;;13.71;92.92
63447;BME280;49577;49.872;6.190;2023-08-06T00:52:30;98356.55;;;13.71;93.07
63447;BME280;49577;49.872;6.190;2023-08-06T00:54:56;98356.55;;;13.71;93.27
63447;BME280;49577;49.872;6.190;2023-08-06T00:57:21;98354.95;;;13.71;93.32
63447;BME280;49577;49.872;6.190;2023-08-06T00:59:49;98352.06;;;13.72;93.41
63447;BME280;49577;49.872;6.190;2023-08-06T01:02:14;98350.66;;;13.72;93.63
63447;BME280;49577;49.872;6.190;2023-08-06T01:04:39;98353.00;;;13.73;93.64
63447;BME280;49577;49.872;6.190;2023-08-06T01:10:01;98349.25;;;13.74;93.58
63447;BME280;49577;49.872;6.190;2023-08-06T01:15:05;98346.41;;;13.74;93.68
63447;BME280;49577;49.872;6.190;2023-08-06T01:17:32;98345.84;;;13.74;93.45
63447;BME280;49577;49.872;6.190;2023-08-06T01:19:58;98346.09;;;13.75;93.64
63447;BME280;49577;49.872;6.190;2023-08-06T01:22:24;98346.73;;;13.76;93.46
63447;BME280;49577;49.872;6.190;2023-08-06T01:24:49;98341.95;;;13.76;93.43
63447;BME280;49577;49.872;6.190;2023-08-06T01:27:17;98340.08;;;13.76;93.62
63447;BME280;49577;49.872;6.190;2023-08-06T01:29:57;98338.86;;;13.78;93.64
63447;BME280;49577;49.872;6.190;2023-08-06T01:32:27;98337.91;;;13.78;93.56
63447;BME280;49577;49.872;6.190;2023-08-06T01:34:54;98338.33;;;13.80;93.59
63447;BME280;49577;49.872;6.190;2023-08-06T01:37:19;98337.83;;;13.81;93.67
63447;BME280;49577;49.872;6.190;2023-08-06T01:39:44;98331.40;;;13.80;93.74
63447;BME280;49577;49.872;6.190;2023-08-06T01:42:10;98330.44;;;13.80;93.72
63447;BME280;49577;49.872;6.190;2023-08-06T01:44:35;98331.10;;;13.80;93.93
63447;BME280;49577;49.872;6.190;2023-08-06T01:47:00;98326.75;;;13.79;93.84
63447;BME280;49577;49.872;6.190;2023-08-06T01:49:25;98330.17;;;13.78;94.03
63447;BME280;49577;49.872;6.190;2023-08-06T01:51:51;98327.51;;;13.77;93.96
63447;BME280;49577;49.872;6.190;2023-08-06T01:54:16;98327.41;;;13.74;93.87
63447;BME280;49577;49.872;6.190;2023-08-06T01:56:41;98327.73;;;13.73;93.80
63447;BME280;49577;49.872;6.190;2023-08-06T01:59:06;98325.41;;;13.72;93.74
63447;BME280;49577;49.872;6.190;2023-08-06T02:01:31;98329.20;;;13.70;93.74
63447;BME280;49577;49.872;6.190;2023-08-06T02:03:57;98325.85;;;13.71;93.84
63447;BME280;49577;49.872;6.190;2023-08-06T02:06:22;98325.47;;;13.71;93.84
63447;BME280;49577;49.872;6.190;2023-08-06T02:08:47;98322.95;;;13.72;93.89
63447;BME280;49577;49.872;6.190;2023-08-06T02:11:12;98325.33;;;13.72;93.73
63447;BME280;49577;49.872;6.190;2023-08-06T02:13:37;98324.61;;;13.71;93.60
63447;BME280;49577;49.872;6.190;2023-08-06T02:16:03;98325.00;;;13.71;93.64
63447;BME280;49577;49.872;6.190;2023-08-06T02:18:28;98318.93;;;13.70;93.73
63447;BME280;49577;49.872;6.190;2023-08-06T02:20:57;98316.84;;;13.68;93.66
63447;BME280;49577;49.872;6.190;2023-08-06T02:23:22;98323.05;;;13.67;93.63
63447;BME280;49577;49.872;6.190;2023-08-06T02:25:48;98318.06;;;13.68;94.00
63447;BME280;49577;49.872;6.190;2023-08-06T02:28:13;98318.09;;;13.66;93.83
63447;BME280;49577;49.872;6.190;2023-08-06T02:30:38;98319.38;;;13.65;93.90
63447;BME280;49577;49.872;6.190;2023-08-06T02:33:03;98320.18;;;13.64;93.95
63447;BME280;49577;49.872;6.190;2023-08-06T02:35:28;98315.02;;;13.63;94.00
63447;BME280;49577;49.872;6.190;2023-08-06T02:37:54;98315.09;;;13.64;94.19
63447;BME280;49577;49.872;6.190;2023-08-06T02:40:19;98315.18;;;13.67;94.48
63447;BME280;49577;49.872;6.190;2023-08-06T02:42:44;98312.29;;;13.70;94.55
63447;BME280;49577;49.872;6.190;2023-08-06T02:45:09;98316.23;;;13.69;94.16
63447;BME280;49577;49.872;6.190;2023-08-06T02:47:34;98317.16;;;13.66;93.92
63447;BME280;49577;49.872;6.190;2023-08-06T02:50:00;98317.20;;;13.66;94.09
63447;BME280;49577;49.872;6.190;2023-08-06T02:52:25;98316.08;;;13.65;94.22
63447;BME280;49577;49.872;6.190;2023-08-06T02:54:50;98314.32;;;13.66;94.28
63447;BME280;49577;49.872;6.190;2023-08-06T02:57:15;98307.67;;;13.66;94.29
63447;BME280;49577;49.872;6.190;2023-08-06T02:59:40;98312.59;;;13.66;94.34
63447;BME280;49577;49.872;6.190;2023-08-06T03:02:06;98307.15;;;13.66;94.25
63447;BME280;49577;49.872;6.190;2023-08-06T03:04:31;98304.52;;;13.66;94.25
63447;BME280;49577;49.872;6.190;2023-08-06T03:06:56;98303.14;;;13.64;94.17
63447;BME280;49577;49.872;6.190;2023-08-06T03:09:22;98304.25;;;13.63;94.37
63447;BME280;49577;49.872;6.190;2023-08-06T03:11:47;98303.34;;;13.64;94.46
63447;BME280;49577;49.872;6.190;2023-08-06T03:14:12;98301.66;;;13.63;94.19
63447;BME280;49577;49.872;6.190;2023-08-06T03:16:37;98299.70;;;13.62;94.07
63447;BME280;49577;49.872;6.190;2023-08-06T03:19:03;98298.69;;;13.61;94.14
63447;BME280;49577;49.872;6.190;2023-08-06T03:21:28;98293.70;;;13.64;94.47
63447;BME280;49577;49.872;6.190;2023-08-06T03:23:53;98301.05;;;13.68;94.41
63447;BME280;49577;49.872;6.190;2023-08-06T03:26:18;98299.34;;;13.67;94.05
63447;BME280;49577;49.872;6.190;2023-08-06T03:28:43;98301.05;;;13.68;94.05
63447;BME280;49577;49.872;6.190;2023-08-06T03:31:09;98302.64;;;13.68;94.14
63447;BME280;49577;49.872;6.190;2023-08-06T03:33:34;98296.09;;;13.68;94.19
63447;BME280;49577;49.872;6.190;2023-08-06T03:35:59;98293.45;;;13.68;94.02
63447;BME280;49577;49.872;6.190;2023-08-06T03:38:24;98292.23;;;13.68;93.88
63447;BME280;49577;49.872;6.190;2023-08-06T03:40:49;98297.04;;;13.69;93.94
63447;BME280;49577;49.872;6.190;2023-08-06T03:43:15;98296.23;;;13.70;94.06
63447;BME280;49577;49.872;6.190;2023-08-06T03:45:40;98290.83;;;13.70;94.06
63447;BME280;49577;49.872;6.190;2023-08-06T03:48:06;98289.35;;;13.71;94.22
63447;BME280;49577;49.872;6.190;2023-08-06T03:50:31;98288.06;;;13.71;94.18
63447;BME280;49577;49.872;6.190;2023-08-06T03:52:56;98286.38;;;13.71;94.21
63447;BME280;49577;49.872;6.190;2023-08-06T03:55:21;98290.63;;;13.70;94.26
63447;BME280;49577;49.872;6.190;2023-08-06T03:57:47;98294.02;;;13.71;94.55
63447;BME280;49577;49.872;6.190;2023-08-06T04:00:12;98293.66;;;13.71;94.44
63447;BME280;49577;49.872;6.190;2023-08-06T04:02:37;98295.77;;;13.72;94.46
63447;BME280;49577;49.872;6.190;2023-08-06T04:05:03;98301.10;;;13.73;94.65
63447;BME280;49577;49.872;6.190;2023-08-06T04:07:28;98302.78;;;13.72;94.62
63447;BME280;49577;49.872;6.190;2023-08-06T04:10:03;98300.04;;;13.71;94.84
63447;BME280;49577;49.872;6.190;2023-08-06T04:12:28;98299.42;;;13.72;94.87
63447;BME280;49577;49.872;6.190;2023-08-06T04:14:54;98294.09;;;13.73;94.86
63447;BME280;49577;49.872;6.190;2023-08-06T04:17:20;98299.20;;;13.72;94.71
63447;BME280;49577;49.872;6.190;2023-08-06T04:19:46;98298.23;;;13.73;94.87
63447;BME280;49577;49.872;6.190;2023-08-06T04:22:12;98294.45;;;13.72;94.78
63447;BME280;49577;49.872;6.190;2023-08-06T04:24:37;98294.42;;;13.73;94.81
63447;BME280;49577;49.872;6.190;2023-08-06T04:27:02;98294.05;;;13.75;94.93
63447;BME280;49577;49.872;6.190;2023-08-06T04:29:27;98296.23;;;13.74;94.61
63447;BME280;49577;49.872;6.190;2023-08-06T04:31:53;98300.58;;;13.73;94.75
63447;BME280;49577;49.872;6.190;2023-08-06T04:34:18;98302.47;;;13.75;95.14
63447;BME280;49577;49.872;6.190;2023-08-06T04:36:43;98306.39;;;13.76;95.13
63447;BME280;49577;49.872;6.190;2023-08-06T04:39:08;98302.33;;;13.76;94.94
63447;BME280;49577;49.872;6.190;2023-08-06T04:41:33;98310.89;;;13.76;94.90
63447;BME280;49577;49.872;6.190;2023-08-06T04:43:58;98313.91;;;13.76;94.73
63447;BME280;49577;49.872;6.190;2023-08-06T04:46:24;98311.35;;;13.77;94.78
63447;BME280;49577;49.872;6.190;2023-08-06T04:48:49;98317.60;;;13.76;94.51
63447;BME280;49577;49.872;6.190;2023-08-06T04:51:14;98320.75;;;13.76;94.65
63447;BME280;49577;49.872;6.190;2023-08-06T04:53:40;98322.64;;;13.77;94.68
63447;BME280;49577;49.872;6.190;2023-08-06T04:56:05;98325.11;;;13.77;94.56
63447;BME280;49577;49.872;6.190;2023-08-06T04:58:30;98323.85;;;13.77;94.46
63447;BME280;49577;49.872;6.190;2023-08-06T05:00:55;98323.14;;;13.75;94.18
63447;BME280;49577;49.872;6.190;2023-08-06T05:03:21;98323.36;;;13.76;94.33
63447;BME280;49577;49.872;6.190;2023-08-06T05:05:46;98322.30;;;13.82;94.73
63447;BME280;49577;49.872;6.190;2023-08-06T05:08:14;98324.25;;;13.91;94.74
63447;BME280;49577;49.872;6.190;2023-08-06T05:10:44;98320.79;;;14.01;94.72
63447;BME280;49577;49.872;6.190;2023-08-06T05:13:09;98320.34;;;14.11;94.72
63447;BME280;49577;49.872;6.190;2023-08-06T05:15:34;98316.30;;;14.27;94.48
63447;BME280;49577;49.872;6.190;2023-08-06T05:17:59;98314.88;;;14.36;93.27
63447;BME280;49577;49.872;6.190;2023-08-06T05:20:25;98315.28;;;14.43;92.25
63447;BME280;49577;49.872;6.190;2023-08-06T05:22:50;98315.64;;;14.54;92.20
63447;BME280;49577;49.872;6.190;2023-08-06T05:25:16;98317.64;;;14.65;91.76
63447;BME280;49577;49.872;6.190;2023-08-06T05:27:41;98318.54;;;14.67;90.49
63447;BME280;49577;49.872;6.190;2023-08-06T05:30:06;98321.16;;;14.64;89.54
63447;BME280;49577;49.872;6.190;2023-08-06T05:32:32;98317.95;;;14.59;89.78
63447;BME280;49577;49.872;6.190;2023-08-06T05:34:57;98315.54;;;14.57;89.90
63447;BME280;49577;49.872;6.190;2023-08-06T05:37:22;98316.65;;;14.53;89.09
63447;BME280;49577;49.872;6.190;2023-08-06T05:39:47;98318.40;;;14.47;89.01
63447;BME280;49577;49.872;6.190;2023-08-06T05:42:12;98320.73;;;14.43;88.90
63447;BME280;49577;49.872;6.190;2023-08-06T05:44:38;98319.82;;;14.40;89.16
63447;BME280;49577;49.872;6.190;2023-08-06T05:47:03;98325.38;;;14.37;89.28
63447;BME280;49577;49.872;6.190;2023-08-06T05:49:28;98329.15;;;14.31;89.13
63447;BME280;49577;49.872;6.190;2023-08-06T05:51:53;98332.55;;;14.28;89.37
63447;BME280;49577;49.872;6.190;2023-08-06T05:54:19;98335.13;;;14.25;89.24
63447;BME280;49577;49.872;6.190;2023-08-06T05:56:44;98333.42;;;14.19;89.22
63447;BME280;49577;49.872;6.190;2023-08-06T05:59:09;98335.26;;;14.13;89.24
63447;BME280;49577;49.872;6.190;2023-08-06T06:01:35;98341.88;;;14.12;89.48
63447;BME280;49577;49.872;6.190;2023-08-06T06:04:00;98342.11;;;14.11;89.14
63447;BME280;49577;49.872;6.190;2023-08-06T06:06:25;98349.75;;;14.14;89.64
63447;BME280;49577;49.872;6.190;2023-08-06T06:08:50;98352.29;;;14.20;89.50
63447;BME280;49577;49.872;6.190;2023-08-06T06:11:15;98353.16;;;14.26;88.97
63447;BME280;49577;49.872;6.190;2023-08-06T06:13:41;98352.86;;;14.34;89.11
63447;BME280;49577;49.872;6.190;2023-08-06T06:16:06;98353.25;;;14.41;88.70
63447;BME280;49577;49.872;6.190;2023-08-06T06:18:31;98352.59;;;14.46;88.37
63447;BME280;49577;49.872;6.190;2023-08-06T06:20:56;98351.38;;;14.46;87.71
63447;BME280;49577;49.872;6.190;2023-08-06T06:23:21;98355.20;;;14.50;87.90
63447;BME280;49577;49.872;6.190;2023-08-06T06:25:48;98357.19;;;14.55;87.24
63447;BME280;49577;49.872;6.190;2023-08-06T06:28:13;98362.39;;;14.57;86.68
63447;BME280;49577;49.872;6.190;2023-08-06T06:30:38;98364.59;;;14.58;86.44
63447;BME280;49577;49.872;6.190;2023-08-06T06:33:04;98364.64;;;14.59;86.15
63447;BME280;49577;49.872;6.190;2023-08-06T06:35:29;98369.17;;;14.60;85.10
63447;BME280;49577;49.872;6.190;2023-08-06T06:37:54;98377.21;;;14.60;85.22
63447;BME280;49577;49.872;6.190;2023-08-06T06:40:20;98381.41;;;14.62;85.08
63447;BME280;49577;49.872;6.190;2023-08-06T06:42:45;98381.32;;;14.67;84.96
63447;BME280;49577;49.872;6.190;2023-08-06T06:45:10;98383.98;;;14.74;84.02
63447;BME280;49577;49.872;6.190;2023-08-06T06:47:35;98389.92;;;14.79;83.70
63447;BME280;49577;49.872;6.190;2023-08-06T06:50:00;98399.79;;;14.84;83.41
63447;BME280;49577;49.872;6.190;2023-08-06T06:52:25;98403.64;;;14.84;83.24
63447;BME280;49577;49.872;6.190;2023-08-06T06:54:51;98408.20;;;14.83;83.43
63447;BME280;49577;49.872;6.190;2023-08-06T06:57:16;98410.80;;;14.81;83.52
63447;BME280;49577;49.872;6.190;2023-08-06T06:59:41;98417.84;;;14.80;83.73
63447;BME280;49577;49.872;6.190;2023-08-06T07:02:06;98417.35;;;14.79;83.88
63447;BME280;49577;49.872;6.190;2023-08-06T07:04:32;98425.55;;;14.78;83.97
63447;BME280;49577;49.872;6.190;2023-08-06T07:06:57;98422.27;;;14.74;83.85
63447;BME280;49577;49.872;6.190;2023-08-06T07:09:22;98426.57;;;14.71;84.38
63447;BME280;49577;49.872;6.190;2023-08-06T07:11:47;98432.37;;;14.71;84.16
63447;BME280;49577;49.872;6.190;2023-08-06T07:14:12;98430.39;;;14.66;84.00
63447;BME280;49577;49.872;6.190;2023-08-06T07:16:39;98438.09;;;14.63;84.33
63447;BME280;49577;49.872;6.190;2023-08-06T07:19:04;98445.61;;;14.60;84.28
63447;BME280;49577;49.872;6.190;2023-08-06T07:21:30;98456.22;;;14.57;84.33
63447;BME280;49577;49.872;6.190;2023-08-06T07:23:55;98457.45;;;14.59;84.24
63447;BME280;49577;49.872;6.190;2023-08-06T07:26:21;98459.02;;;14.57;83.66
63447;BME280;49577;49.872;6.190;2023-08-06T07:28:46;98464.09;;;14.54;83.30
63447;BME280;49577;49.872;6.190;2023-08-06T07:31:11;98473.67;;;14.53;83.50
63447;BME280;49577;49.872;6.190;2023-08-06T07:33:37;98483.30;;;14.55;83.42
63447;BME280;49577;49.872;6.190;2023-08-06T07:36:08;98486.20;;;14.53;83.59
63447;BME280;49577;49.872;6.190;2023-08-06T07:38:34;98490.92;;;14.51;83.62
63447;BME280;49577;49.872;6.190;2023-08-06T07:41:01;98504.53;;;14.52;83.77
63447;BME280;49577;49.872;6.190;2023-08-06T07:43:26;98508.59;;;14.56;83.44
63447;BME280;49577;49.872;6.190;2023-08-06T07:45:51;98509.15;;;14.55;83.28
63447;BME280;49577;49.872;6.190;2023-08-06T07:48:16;98523.84;;;14.52;82.77
63447;BME280;49577;49.872;6.190;2023-08-06T07:50:42;98523.63;;;14.51;82.84
63447;BME280;49577;49.872;6.190;2023-08-06T07:53:08;98530.55;;;14.54;82.46
63447;BME280;49577;49.872;6.190;2023-08-06T07:55:33;98536.55;;;14.61;82.27
63447;BME280;49577;49.872;6.190;2023-08-06T07:57:58;98542.75;;;14.69;82.08
63447;BME280;49577;49.872;6.190;2023-08-06T08:00:23;98542.76;;;14.82;82.25
63447;BME280;49577;49.872;6.190;2023-08-06T08:02:49;98547.08;;;14.97;82.26
63447;BME280;49577;49.872;6.190;2023-08-06T08:05:14;98551.05;;;15.10;82.01
63447;BME280;49577;49.872;6.190;2023-08-06T08:07:39;98551.64;;;15.21;81.42
63447;BME280;49577;49.872;6.190;2023-08-06T08:10:05;98561.94;;;15.25;81.42
63447;BME280;49577;49.872;6.190;2023-08-06T08:12:30;98558.64;;;15.30;80.81
63447;BME280;49577;49.872;6.190;2023-08-06T08:14:55;98568.58;;;15.27;79.83
63447;BME280;49577;49.872;6.190;2023-08-06T08:17:20;98572.65;;;15.23;79.78
63447;BME280;49577;49.872;6.190;2023-08-06T08:19:46;98579.73;;;15.23;79.64
63447;BME280;49577;49.872;6.190;2023-08-06T08:22:11;98582.68;;;15.23;79.73
63447;BME280;49577;49.872;6.190;2023-08-06T08:24:36;98587.75;;;15.27;79.93
63447;BME280;49577;49.872;6.190;2023-08-06T08:27:01;98594.33;;;15.30;79.56
63447;BME280;49577;49.872;6.190;2023-08-06T08:29:27;98599.60;;;15.28;79.26
63447;BME280;49577;49.872;6.190;2023-08-06T08:31:52;98600.91;;;15.27;78.56
63447;BME280;49577;49.872;6.190;2023-08-06T08:34:17;98605.58;;;15.25;78.73
63447;BME280;49577;49.872;6.190;2023-08-06T08:36:42;98613.16;;;15.19;78.47
63447;BME280;49577;49.872;6.190;2023-08-06T08:39:08;98620.90;;;15.14;77.96
63447;BME280;49577;49.872;6.190;2023-08-06T08:41:33;98622.16;;;15.06;77.57
63447;BME280;49577;49.872;6.190;2023-08-06T08:43:58;98632.87;;;15.05;77.65
63447;BME280;49577;49.872;6.190;2023-08-06T08:46:27;98642.89;;;15.08;76.75
63447;BME280;49577;49.872;6.190;2023-08-06T08:48:54;98645.48;;;15.12;76.34
63447;BME280;49577;49.872;6.190;2023-08-06T08:51:20;98647.57;;;15.25;75.96
63447;BME280;49577;49.872;6.190;2023-08-06T08:53:45;98657.36;;;15.44;75.77
63447;BME280;49577;49.872;6.190;2023-08-06T08:56:12;98655.21;;;15.63;74.72
63447;BME280;49577;49.872;6.190;2023-08-06T08:58:38;98655.09;;;15.81;74.48
63447;BME280;49577;49.872;6.190;2023-08-06T09:01:03;98654.15;;;16.01;73.97
63447;BME280;49577;49.872;6.190;2023-08-06T09:03:29;98661.73;;;16.21;73.55
63447;BME280;49577;49.872;6.190;2023-08-06T09:05:55;98658.89;;;16.36;72.86
63447;BME280;49577;49.872;6.190;2023-08-06T09:08:24;98660.73;;;16.42;71.39
63447;BME280;49577;49.872;6.190;2023-08-06T09:10:52;98668.92;;;16.51;71.46
63447;BME280;49577;49.872;6.190;2023-08-06T09:13:17;98678.48;;;16.59;71.63
63447;BME280;49577;49.872;6.190;2023-08-06T09:15:42;98682.55;;;16.67;70.92
63447;BME280;49577;49.872;6.190;2023-08-06T09:18:09;98691.98;;;16.66;70.83
63447;BME280;49577;49.872;6.190;2023-08-06T09:20:36;98691.02;;;16.65;70.10
63447;BME280;49577;49.872;6.190;2023-08-06T09:23:10;98694.34;;;16.64;70.35
63447;BME280;49577;49.872;6.190;2023-08-06T09:25:39;98699.47;;;16.64;70.49
63447;BME280;49577;49.872;6.190;2023-08-06T09:28:07;98702.23;;;16.53;69.31
63447;BME280;49577;49.872;6.190;2023-08-06T09:30:33;98708.85;;;16.37;70.44
63447;BME280;49577;49.872;6.190;2023-08-06T09:32:59;98713.10;;;16.39;71.07
63447;BME280;49577;49.872;6.190;2023-08-06T09:35:25;98715.00;;;16.41;71.04
63447;BME280;49577;49.872;6.190;2023-08-06T09:37:50;98717.75;;;16.38;70.61
63447;BME280;49577;49.872;6.190;2023-08-06T09:42:49;98724.15;;;16.24;70.86
63447;BME280;49577;49.872;6.190;2023-08-06T09:45:16;98730.86;;;16.22;70.90
63447;BME280;49577;49.872;6.190;2023-08-06T09:47:41;98740.77;;;16.18;71.01
63447;BME280;49577;49.872;6.190;2023-08-06T09:50:06;98741.70;;;16.15;71.68
63447;BME280;49577;49.872;6.190;2023-08-06T09:52:39;98755.23;;;16.11;71.99
63447;BME280;49577;49.872;6.190;2023-08-06T09:55:05;98757.05;;;16.03;71.87
63447;BME280;49577;49.872;6.190;2023-08-06T09:57:30;98752.55;;;15.99;72.14
63447;BME280;49577;49.872;6.190;2023-08-06T09:59:56;98759.07;;;15.97;72.13
63447;BME280;49577;49.872;6.190;2023-08-06T10:02:22;98763.84;;;16.02;72.47
63447;BME280;49577;49.872;6.190;2023-08-06T10:04:49;98771.33;;;16.05;72.31
63447;BME280;49577;49.872;6.190;2023-08-06T10:07:15;98774.50;;;15.99;72.12
63447;BME280;49577;49.872;6.190;2023-08-06T10:09:43;98776.92;;;16.03;72.97
63447;BME280;49577;49.872;6.190;2023-08-06T10:12:08;98775.58;;;16.26;72.73
63447;BME280;49577;49.872;6.190;2023-08-06T10:14:35;98776.77;;;16.49;71.92
63447;BME280;49577;49.872;6.190;2023-08-06T10:17:02;98777.45;;;16.70;71.91
63447;BME280;49577;49.872;6.190;2023-08-06T10:19:27;98782.17;;;16.86;70.53
63447;BME280;49577;49.872;6.190;2023-08-06T10:24:54;98782.52;;;17.28;70.31
63447;BME280;49577;49.872;6.190;2023-08-06T10:27:20;98788.14;;;17.50;68.86
63447;BME280;49577;49.872;6.190;2023-08-06T10:29:46;98791.40;;;17.55;67.30
63447;BME280;49577;49.872;6.190;2023-08-06T10:32:11;98788.73;;;17.75;67.40
63447;BME280;49577;49.872;6.190;2023-08-06T10:37:21;98786.71;;;18.34;65.30
63447;BME280;49577;49.872;6.190;2023-08-06T10:39:48;98785.88;;;18.48;64.61
63447;BME280;49577;49.872;6.190;2023-08-06T10:42:22;98794.20;;;18.55;63.94
63447;BME280;49577;49.872;6.190;2023-08-06T10:47:33;98800.40;;;19.88;61.92
63447;BME280;49577;49.872;6.190;2023-08-06T10:50:02;98803.57;;;20.54;59.31
63447;BME280;49577;49.872;6.190;2023-08-06T10:52:28;98803.96;;;21.48;56.68
63447;BME280;49577;49.872;6.190;2023-08-06T10:54:54;98801.14;;;22.56;53.63
63447;BME280;49577;49.872;6.190;2023-08-06T10:57:19;98795.02;;;23.74;49.60
63447;BME280;49577;49.872;6.190;2023-08-06T10:59:44;98793.39;;;24.31;48.87
63447;BME280;49577;49.872;6.190;2023-08-06T11:02:09;98788.62;;;25.05;47.12
63447;BME280;49577;49.872;6.190;2023-08-06T11:04:35;98788.42;;;25.48;44.31
63447;BME280;49577;49.872;6.190;2023-08-06T11:07:00;98786.66;;;24.97;43.78
63447;BME280;49577;49.872;6.190;2023-08-06T11:09:26;98791.30;;;24.28;45.15
63447;BME280;49577;49.872;6.190;2023-08-06T11:11:51;98808.69;;;23.47;46.67
63447;BME280;49577;49.872;6.190;2023-08-06T11:14:16;98808.85;;;22.83;47.27
63447;BME280;49577;49.872;6.190;2023-08-06T11:16:42;98805.42;;;22.38;48.30
63447;BME280;49577;49.872;6.190;2023-08-06T11:19:07;98811.49;;;22.42;48.92
63447;BME280;49577;49.872;6.190;2023-08-06T11:21:33;98810.10;;;23.29;48.78
63447;BME280;49577;49.872;6.190;2023-08-06T11:23:58;98804.95;;;23.88;46.82
63447;BME280;49577;49.872;6.190;2023-08-06T11:26:23;98803.04;;;23.79;45.82
63447;BME280;49577;49.872;6.190;2023-08-06T11:28:49;98809.11;;;23.07;47.04
63447;BME280;49577;49.872;6.190;2023-08-06T11:31:18;98822.47;;;22.44;48.62
63447;BME280;49577;49.872;6.190;2023-08-06T11:33:43;98830.73;;;21.75;49.29
63447;BME280;49577;49.872;6.190;2023-08-06T11:36:08;98839.56;;;21.06;50.51
63447;BME280;49577;49.872;6.190;2023-08-06T11:38:34;98846.48;;;20.70;52.07
63447;BME280;49577;49.872;6.190;2023-08-06T11:40:59;98840.67;;;21.20;51.62
63447;BME280;49577;49.872;6.190;2023-08-06T11:43:24;98826.34;;;21.89;50.87
63447;BME280;49577;49.872;6.190;2023-08-06T11:45:50;98831.18;;;22.12;49.03
63447;BME280;49577;49.872;6.190;2023-08-06T11:48:16;98823.20;;;21.86;49.40
63447;BME280;49577;49.872;6.190;2023-08-06T11:50:41;98835.20;;;21.55;50.31
63447;BME280;49577;49.872;6.190;2023-08-06T11:53:07;98837.55;;;21.35;50.20
63447;BME280;49577;49.872;6.190;2023-08-06T11:55:32;98836.33;;;21.14;50.75
63447;BME280;49577;49.872;6.190;2023-08-06T11:57:58;98837.91;;;21.05;51.22
63447;BME280;49577;49.872;6.190;2023-08-06T12:00:24;98839.66;;;21.41;51.50
63447;BME280;49577;49.872;6.190;2023-08-06T12:02:50;98843.30;;;22.06;49.96
63447;BME280;49577;49.872;6.190;2023-08-06T12:05:17;98834.78;;;22.26;48.69
63447;BME280;49577;49.872;6.190;2023-08-06T12:07:45;98828.75;;;22.43;47.73
63447;BME280;49577;49.872;6.190;2023-08-06T12:10:15;98835.61;;;22.84;46.85
63447;BME280;49577;49.872;6.190;2023-08-06T12:12:40;98837.48;;;23.02;46.92
63447;BME280;49577;49.872;6.190;2023-08-06T12:15:06;98856.25;;;22.51;46.65
63447;BME280;49577;49.872;6.190;2023-08-06T12:17:32;98863.11;;;21.76;49.01
63447;BME280;49577;49.872;6.190;2023-08-06T12:19:57;98868.75;;;21.10;49.98
63447;BME280;49577;49.872;6.190;2023-08-06T12:22:23;98870.30;;;20.62;50.30
63447;BME280;49577;49.872;6.190;2023-08-06T12:24:48;98871.40;;;20.29;51.04
63447;BME280;49577;49.872;6.190;2023-08-06T12:27:14;98873.91;;;20.21;52.06
63447;BME280;49577;49.872;6.190;2023-08-06T12:29:44;98878.39;;;20.38;53.21
63447;BME280;49577;49.872;6.190;2023-08-06T12:32:12;98882.66;;;20.36;53.80
63447;BME280;49577;49.872;6.190;2023-08-06T12:34:41;98884.14;;;20.09;54.53
63447;BME280;49577;49.872;6.190;2023-08-06T12:37:07;98885.07;;;19.90;54.86
63447;BME280;49577;49.872;6.190;2023-08-06T12:39:33;98887.91;;;19.77;55.53
63447;BME280;49577;49.872;6.190;2023-08-06T12:41:59;98889.74;;;19.66;56.00
63447;BME280;49577;49.872;6.190;2023-08-06T12:44:24;98896.98;;;19.48;56.26
63447;BME280;49577;49.872;6.190;2023-08-06T12:46:50;98900.52;;;19.26;57.60
63447;BME280;49577;49.872;6.190;2023-08-06T12:49:16;98898.98;;;19.13;57.94
63447;BME280;49577;49.872;6.190;2023-08-06T12:51:42;98897.02;;;19.14;58.54
63447;BME280;49577;49.872;6.190;2023-08-06T12:54:07;98904.61;;;19.26;58.30
63447;BME280;49577;49.872;6.190;2023-08-06T12:56:32;98914.11;;;19.37;57.63
63447;BME280;49577;49.872;6.190;2023-08-06T12:58:57;98924.38;;;19.28;57.51
63447;BME280;49577;49.872;6.190;2023-08-06T13:01:22;98928.38;;;19.06;58.38
63447;BME280;49577;49.872;6.190;2023-08-06T13:03:48;98930.42;;;18.99;59.09
63447;BME280;49577;49.872;6.190;2023-08-06T13:06:13;98921.27;;;19.01;58.86
63447;BME280;49577;49.872;6.190;2023-08-06T13:08:38;98927.46;;;19.03;58.98